sensor_id;sensor_type;location;lat;lon;timestamp;P1;durP1;ratioP1;P2;durP2;ratioP2
11024;SDS011;22890;51.820;8.682;2023-08-12T00:01:52;4.30;;;3.30;;
11024;SDS011;22890;51.820;8.682;2023-08-12T00:04:19;4.87;;;3.63;;
11024;SDS011;22890;51.820;8.682;2023-08-12T00:06:45;5.43;;;3.07;;
11024;SDS011;22890;51.820;8.682;2023-08-12T00:09:12;4.50;;;3.50;;
11024;SDS011;22890;51.820;8.682;2023-08-12T00:11:41;6.20;;;3.50;;
11024;SDS011;22890;51.820;8.682;2023-08-12T00:14:08;3.83;;;3.53;;
11024;SDS011;22890;51.820;8.682;2023-08-12T00:16:35;7.63;;;3.70;;
11024;SDS011;22890;51.820;8.682;2023-08-12T00:19:02;6.23;;;3.33;;
11024;SDS011;22890;51.820;8.682;2023-08-12T00:21:28;3.60;;;3.30;;
11024;SDS011;22890;51.820;8.682;2023-08-12T00:23:55;6.00;;;3.67;;
11024;SDS011;22890;51.820;8.682;2023-08-12T00:26:22;9.17;;;3.53;;
11024;SDS011;22890;51.820;8.682;2023-08-12T00:28:49;5.40;;;3.40;;
11024;SDS011;22890;51.820;8.682;2023-08-12T00:31:16;5.87;;;3.33;;
11024;SDS011;22890;51.820;8.682;2023-08-12T00:33:43;4.90;;;3.40;;
11024;SDS011;22890;51.820;8.682;2023-08-12T00:36:09;5.93;;;3.73;;
11024;SDS011;22890;51.820;8.682;2023-08-12T00:38:36;6.07;;;3.27;;
11024;SDS011;22890;51.820;8.682;2023-08-12T00:41:03;4.13;;;3.30;;
11024;SDS011;22890;51.820;8.682;2023-08-12T00:43:30;8.50;;;3.67;;
11024;SDS011;22890;51.820;8.682;2023-08-12T00:45:56;6.03;;;3.73;;
11024;SDS011;22890;51.820;8.682;2023-08-12T00:48:23;5.77;;;4.20;;
11024;SDS011;22890;51.820;8.682;2023-08-12T00:50:51;4.53;;;3.83;;
11024;SDS011;22890;51.820;8.682;2023-08-12T00:53:18;8.50;;;3.83;;
11024;SDS011;22890;51.820;8.682;2023-08-12T00:55:46;4.90;;;3.17;;
11024;SDS011;22890;51.820;8.682;2023-08-12T00:58:13;4.43;;;3.43;;
11024;SDS011;22890;51.820;8.682;2023-08-12T01:00:40;4.47;;;3.23;;
11024;SDS011;22890;51.820;8.682;2023-08-12T01:03:07;4.77;;;3.30;;
11024;SDS011;22890;51.820;8.682;2023-08-12T01:05:34;6.47;;;3.23;;
11024;SDS011;22890;51.820;8.682;2023-08-12T01:08:05;5.70;;;3.80;;
11024;SDS011;22890;51.820;8.682;2023-08-12T01:10:33;5.10;;;3.77;;
11024;SDS011;22890;51.820;8.682;2023-08-12T01:15:38;5.80;;;4.20;;
11024;SDS011;22890;51.820;8.682;2023-08-12T01:18:08;4.63;;;4.23;;
11024;SDS011;22890;51.820;8.682;2023-08-12T01:20:37;4.60;;;4.13;;
11024;SDS011;22890;51.820;8.682;2023-08-12T01:23:14;7.33;;;4.87;;
11024;SDS011;22890;51.820;8.682;2023-08-12T01:25:41;6.23;;;4.63;;
11024;SDS011;22890;51.820;8.682;2023-08-12T01:28:09;9.33;;;4.70;;
11024;SDS011;22890;51.820;8.682;2023-08-12T01:30:39;9.83;;;4.17;;
11024;SDS011;22890;51.820;8.682;2023-08-12T01:33:17;7.17;;;3.60;;
11024;SDS011;22890;51.820;8.682;2023-08-12T01:35:54;5.43;;;4.93;;
11024;SDS011;22890;51.820;8.682;2023-08-12T01:38:24;6.50;;;4.83;;
11024;SDS011;22890;51.820;8.682;2023-08-12T01:40:54;14.77;;;4.80;;
11024;SDS011;22890;51.820;8.682;2023-08-12T01:43:21;9.07;;;4.73;;
11024;SDS011;22890;51.820;8.682;2023-08-12T01:45:49;8.17;;;5.90;;
11024;SDS011;22890;51.820;8.682;2023-08-12T01:48:17;7.17;;;5.50;;
11024;SDS011;22890;51.820;8.682;2023-08-12T01:50:46;9.17;;;5.50;;
11024;SDS011;22890;51.820;8.682;2023-08-12T01:53:14;13.03;;;6.00;;
11024;SDS011;22890;51.820;8.682;2023-08-12T01:55:43;12.87;;;6.13;;
11024;SDS011;22890;51.820;8.682;2023-08-12T01:58:11;11.53;;;6.17;;
11024;SDS011;22890;51.820;8.682;2023-08-12T02:00:38;9.97;;;6.53;;
11024;SDS011;22890;51.820;8.682;2023-08-12T02:03:05;8.03;;;6.73;;
11024;SDS011;22890;51.820;8.682;2023-08-12T02:05:33;17.00;;;7.20;;
11024;SDS011;22890;51.820;8.682;2023-08-12T02:08:00;9.50;;;6.47;;
11024;SDS011;22890;51.820;8.682;2023-08-12T02:10:27;9.73;;;6.93;;
11024;SDS011;22890;51.820;8.682;2023-08-12T02:12:54;9.43;;;7.03;;
11024;SDS011;22890;51.820;8.682;2023-08-12T02:15:21;10.03;;;6.83;;
11024;SDS011;22890;51.820;8.682;2023-08-12T02:17:48;10.97;;;7.00;;
11024;SDS011;22890;51.820;8.682;2023-08-12T02:20:14;11.23;;;6.93;;
11024;SDS011;22890;51.820;8.682;2023-08-12T02:22:41;10.13;;;7.23;;
11024;SDS011;22890;51.820;8.682;2023-08-12T02:25:08;10.30;;;7.03;;
11024;SDS011;22890;51.820;8.682;2023-08-12T02:27:35;12.43;;;7.63;;
11024;SDS011;22890;51.820;8.682;2023-08-12T02:30:02;11.07;;;7.57;;
11024;SDS011;22890;51.820;8.682;2023-08-12T02:32:29;9.77;;;8.10;;
11024;SDS011;22890;51.820;8.682;2023-08-12T02:34:56;10.10;;;7.13;;
11024;SDS011;22890;51.820;8.682;2023-08-12T02:37:23;10.33;;;7.97;;
11024;SDS011;22890;51.820;8.682;2023-08-12T02:39:50;10.93;;;7.67;;
11024;SDS011;22890;51.820;8.682;2023-08-12T02:42:16;12.20;;;7.87;;
11024;SDS011;22890;51.820;8.682;2023-08-12T02:44:43;13.67;;;8.70;;
11024;SDS011;22890;51.820;8.682;2023-08-12T02:47:10;12.13;;;8.27;;
11024;SDS011;22890;51.820;8.682;2023-08-12T02:49:37;11.43;;;8.37;;
11024;SDS011;22890;51.820;8.682;2023-08-12T02:52:04;12.30;;;8.60;;
11024;SDS011;22890;51.820;8.682;2023-08-12T02:54:31;13.73;;;7.97;;
11024;SDS011;22890;51.820;8.682;2023-08-12T02:56:57;12.10;;;8.27;;
11024;SDS011;22890;51.820;8.682;2023-08-12T02:59:24;14.20;;;8.40;;
11024;SDS011;22890;51.820;8.682;2023-08-12T03:01:52;12.27;;;7.90;;
11024;SDS011;22890;51.820;8.682;2023-08-12T03:04:18;16.23;;;9.60;;
11024;SDS011;22890;51.820;8.682;2023-08-12T03:06:45;14.53;;;9.93;;
11024;SDS011;22890;51.820;8.682;2023-08-12T03:09:12;27.70;;;10.47;;
11024;SDS011;22890;51.820;8.682;2023-08-12T03:11:43;11.93;;;9.00;;
11024;SDS011;22890;51.820;8.682;2023-08-12T03:14:10;12.33;;;9.53;;
11024;SDS011;22890;51.820;8.682;2023-08-12T03:16:37;14.77;;;11.17;;
11024;SDS011;22890;51.820;8.682;2023-08-12T03:19:03;22.60;;;12.13;;
11024;SDS011;22890;51.820;8.682;2023-08-12T03:21:30;18.77;;;12.30;;
11024;SDS011;22890;51.820;8.682;2023-08-12T03:23:57;17.30;;;12.13;;
11024;SDS011;22890;51.820;8.682;2023-08-12T03:26:24;18.40;;;12.53;;
11024;SDS011;22890;51.820;8.682;2023-08-12T03:28:53;19.53;;;12.27;;
11024;SDS011;22890;51.820;8.682;2023-08-12T03:31:20;23.60;;;12.47;;
11024;SDS011;22890;51.820;8.682;2023-08-12T03:33:47;15.63;;;11.87;;
11024;SDS011;22890;51.820;8.682;2023-08-12T03:36:14;26.20;;;12.03;;
11024;SDS011;22890;51.820;8.682;2023-08-12T03:38:41;18.67;;;12.43;;
11024;SDS011;22890;51.820;8.682;2023-08-12T03:41:12;17.73;;;12.80;;
11024;SDS011;22890;51.820;8.682;2023-08-12T03:43:39;17.47;;;14.03;;
11024;SDS011;22890;51.820;8.682;2023-08-12T03:46:06;19.07;;;15.10;;
11024;SDS011;22890;51.820;8.682;2023-08-12T03:48:33;22.20;;;14.47;;
11024;SDS011;22890;51.820;8.682;2023-08-12T03:50:59;23.77;;;14.70;;
11024;SDS011;22890;51.820;8.682;2023-08-12T03:53:26;21.97;;;15.37;;
11024;SDS011;22890;51.820;8.682;2023-08-12T03:55:54;22.00;;;14.87;;
11024;SDS011;22890;51.820;8.682;2023-08-12T03:58:21;20.77;;;15.27;;
11024;SDS011;22890;51.820;8.682;2023-08-12T04:00:48;20.20;;;13.67;;
11024;SDS011;22890;51.820;8.682;2023-08-12T04:03:15;17.27;;;13.67;;
11024;SDS011;22890;51.820;8.682;2023-08-12T04:05:49;17.57;;;14.20;;
11024;SDS011;22890;51.820;8.682;2023-08-12T04:08:19;21.87;;;14.30;;
11024;SDS011;22890;51.820;8.682;2023-08-12T04:10:47;19.97;;;15.60;;
11024;SDS011;22890;51.820;8.682;2023-08-12T04:13:14;24.27;;;16.67;;
11024;SDS011;22890;51.820;8.682;2023-08-12T04:15:41;24.33;;;15.87;;
11024;SDS011;22890;51.820;8.682;2023-08-12T04:18:09;22.70;;;14.80;;
11024;SDS011;22890;51.820;8.682;2023-08-12T04:20:36;27.60;;;15.80;;
11024;SDS011;22890;51.820;8.682;2023-08-12T04:23:04;24.27;;;15.60;;
11024;SDS011;22890;51.820;8.682;2023-08-12T04:25:31;25.10;;;15.43;;
11024;SDS011;22890;51.820;8.682;2023-08-12T04:27:58;22.90;;;15.90;;
11024;SDS011;22890;51.820;8.682;2023-08-12T04:30:25;20.80;;;16.53;;
11024;SDS011;22890;51.820;8.682;2023-08-12T04:32:53;21.17;;;14.80;;
11024;SDS011;22890;51.820;8.682;2023-08-12T04:35:21;22.07;;;15.33;;
11024;SDS011;22890;51.820;8.682;2023-08-12T04:37:48;21.13;;;15.97;;
11024;SDS011;22890;51.820;8.682;2023-08-12T04:40:14;22.03;;;15.30;;
11024;SDS011;22890;51.820;8.682;2023-08-12T04:42:41;21.53;;;15.97;;
11024;SDS011;22890;51.820;8.682;2023-08-12T04:45:08;20.63;;;15.00;;
11024;SDS011;22890;51.820;8.682;2023-08-12T04:47:36;23.17;;;14.07;;
11024;SDS011;22890;51.820;8.682;2023-08-12T04:50:03;34.50;;;15.53;;
11024;SDS011;22890;51.820;8.682;2023-08-12T04:52:30;19.50;;;14.43;;
11024;SDS011;22890;51.820;8.682;2023-08-12T04:54:57;19.27;;;14.73;;
11024;SDS011;22890;51.820;8.682;2023-08-12T04:57:25;18.63;;;15.53;;
11024;SDS011;22890;51.820;8.682;2023-08-12T04:59:53;24.33;;;17.53;;
11024;SDS011;22890;51.820;8.682;2023-08-12T05:02:20;25.07;;;17.80;;
11024;SDS011;22890;51.820;8.682;2023-08-12T05:04:48;24.13;;;17.00;;
11024;SDS011;22890;51.820;8.682;2023-08-12T05:07:16;22.53;;;17.20;;
11024;SDS011;22890;51.820;8.682;2023-08-12T05:09:43;29.43;;;18.57;;
11024;SDS011;22890;51.820;8.682;2023-08-12T05:12:14;25.27;;;17.37;;
11024;SDS011;22890;51.820;8.682;2023-08-12T05:14:41;26.87;;;19.30;;
11024;SDS011;22890;51.820;8.682;2023-08-12T05:17:08;27.17;;;17.00;;
11024;SDS011;22890;51.820;8.682;2023-08-12T05:19:36;28.67;;;18.07;;
11024;SDS011;22890;51.820;8.682;2023-08-12T05:22:03;24.43;;;18.20;;
11024;SDS011;22890;51.820;8.682;2023-08-12T05:24:30;27.80;;;18.80;;
11024;SDS011;22890;51.820;8.682;2023-08-12T05:26:57;22.97;;;17.40;;
11024;SDS011;22890;51.820;8.682;2023-08-12T05:29:23;27.13;;;18.80;;
11024;SDS011;22890;51.820;8.682;2023-08-12T05:31:50;25.70;;;18.37;;
11024;SDS011;22890;51.820;8.682;2023-08-12T05:34:17;27.47;;;18.00;;
11024;SDS011;22890;51.820;8.682;2023-08-12T05:36:43;23.37;;;17.60;;
11024;SDS011;22890;51.820;8.682;2023-08-12T05:39:10;24.77;;;17.53;;
11024;SDS011;22890;51.820;8.682;2023-08-12T05:41:37;22.77;;;16.60;;
11024;SDS011;22890;51.820;8.682;2023-08-12T05:44:04;22.47;;;16.57;;
11024;SDS011;22890;51.820;8.682;2023-08-12T05:46:31;22.70;;;17.60;;
11024;SDS011;22890;51.820;8.682;2023-08-12T05:48:58;23.93;;;18.50;;
11024;SDS011;22890;51.820;8.682;2023-08-12T05:51:25;25.47;;;17.47;;
11024;SDS011;22890;51.820;8.682;2023-08-12T05:53:55;23.60;;;17.63;;
11024;SDS011;22890;51.820;8.682;2023-08-12T05:56:22;23.63;;;18.50;;
11024;SDS011;22890;51.820;8.682;2023-08-12T05:58:49;24.63;;;17.37;;
11024;SDS011;22890;51.820;8.682;2023-08-12T06:01:16;20.87;;;16.33;;
11024;SDS011;22890;51.820;8.682;2023-08-12T06:03:43;23.70;;;17.10;;
11024;SDS011;22890;51.820;8.682;2023-08-12T06:06:10;24.87;;;17.40;;
11024;SDS011;22890;51.820;8.682;2023-08-12T06:08:36;20.37;;;16.33;;
11024;SDS011;22890;51.820;8.682;2023-08-12T06:11:03;22.37;;;16.30;;
11024;SDS011;22890;51.820;8.682;2023-08-12T06:13:30;23.37;;;16.20;;
11024;SDS011;22890;51.820;8.682;2023-08-12T06:15:56;23.83;;;16.10;;
11024;SDS011;22890;51.820;8.682;2023-08-12T06:18:23;24.73;;;17.03;;
11024;SDS011;22890;51.820;8.682;2023-08-12T06:20:50;23.47;;;16.90;;
11024;SDS011;22890;51.820;8.682;2023-08-12T06:23:17;25.87;;;16.23;;
11024;SDS011;22890;51.820;8.682;2023-08-12T06:25:43;27.00;;;16.63;;
11024;SDS011;22890;51.820;8.682;2023-08-12T06:28:10;20.80;;;15.63;;
11024;SDS011;22890;51.820;8.682;2023-08-12T06:30:37;25.83;;;16.53;;
11024;SDS011;22890;51.820;8.682;2023-08-12T06:33:04;22.43;;;15.60;;
11024;SDS011;22890;51.820;8.682;2023-08-12T06:35:31;20.57;;;15.00;;
11024;SDS011;22890;51.820;8.682;2023-08-12T06:37:57;24.33;;;14.77;;
11024;SDS011;22890;51.820;8.682;2023-08-12T06:40:24;18.60;;;14.07;;
11024;SDS011;22890;51.820;8.682;2023-08-12T06:42:52;21.23;;;15.33;;
11024;SDS011;22890;51.820;8.682;2023-08-12T06:45:19;20.70;;;15.80;;
11024;SDS011;22890;51.820;8.682;2023-08-12T06:47:46;17.70;;;14.67;;
11024;SDS011;22890;51.820;8.682;2023-08-12T06:50:13;24.40;;;15.90;;
11024;SDS011;22890;51.820;8.682;2023-08-12T06:52:39;24.73;;;16.07;;
11024;SDS011;22890;51.820;8.682;2023-08-12T06:55:06;21.13;;;14.97;;
11024;SDS011;22890;51.820;8.682;2023-08-12T06:57:33;22.93;;;16.10;;
11024;SDS011;22890;51.820;8.682;2023-08-12T06:59:59;20.67;;;15.07;;
11024;SDS011;22890;51.820;8.682;2023-08-12T07:02:26;19.43;;;14.70;;
11024;SDS011;22890;51.820;8.682;2023-08-12T07:04:54;17.90;;;15.47;;
11024;SDS011;22890;51.820;8.682;2023-08-12T07:07:21;20.97;;;15.03;;
11024;SDS011;22890;51.820;8.682;2023-08-12T07:09:48;20.73;;;14.87;;
11024;SDS011;22890;51.820;8.682;2023-08-12T07:12:15;17.97;;;13.80;;
11024;SDS011;22890;51.820;8.682;2023-08-12T07:14:41;20.50;;;15.03;;
11024;SDS011;22890;51.820;8.682;2023-08-12T07:17:08;19.33;;;14.40;;
11024;SDS011;22890;51.820;8.682;2023-08-12T07:19:35;20.23;;;14.33;;
11024;SDS011;22890;51.820;8.682;2023-08-12T07:22:02;19.47;;;14.70;;
11024;SDS011;22890;51.820;8.682;2023-08-12T07:24:28;19.00;;;14.37;;
11024;SDS011;22890;51.820;8.682;2023-08-12T07:26:55;18.67;;;14.17;;
11024;SDS011;22890;51.820;8.682;2023-08-12T07:29:22;18.73;;;16.27;;
11024;SDS011;22890;51.820;8.682;2023-08-12T07:31:49;21.33;;;15.80;;
11024;SDS011;22890;51.820;8.682;2023-08-12T07:34:15;19.57;;;15.83;;
11024;SDS011;22890;51.820;8.682;2023-08-12T07:36:42;21.17;;;15.00;;
11024;SDS011;22890;51.820;8.682;2023-08-12T07:39:09;18.17;;;14.80;;
11024;SDS011;22890;51.820;8.682;2023-08-12T07:41:36;19.40;;;14.97;;
11024;SDS011;22890;51.820;8.682;2023-08-12T07:44:04;17.23;;;14.30;;
11024;SDS011;22890;51.820;8.682;2023-08-12T07:46:31;16.20;;;14.07;;
11024;SDS011;22890;51.820;8.682;2023-08-12T07:48:58;15.63;;;13.83;;
11024;SDS011;22890;51.820;8.682;2023-08-12T07:51:25;14.07;;;12.57;;
11024;SDS011;22890;51.820;8.682;2023-08-12T07:53:51;17.83;;;13.63;;
11024;SDS011;22890;51.820;8.682;2023-08-12T07:56:18;15.17;;;13.17;;
11024;SDS011;22890;51.820;8.682;2023-08-12T07:58:45;13.90;;;12.43;;
11024;SDS011;22890;51.820;8.682;2023-08-12T08:01:12;12.23;;;10.90;;
11024;SDS011;22890;51.820;8.682;2023-08-12T08:03:39;13.13;;;11.73;;
11024;SDS011;22890;51.820;8.682;2023-08-12T08:06:06;14.80;;;11.73;;
11024;SDS011;22890;51.820;8.682;2023-08-12T08:08:33;14.53;;;11.20;;
11024;SDS011;22890;51.820;8.682;2023-08-12T08:11:00;14.23;;;11.53;;
11024;SDS011;22890;51.820;8.682;2023-08-12T08:13:26;13.40;;;11.23;;
11024;SDS011;22890;51.820;8.682;2023-08-12T08:15:53;12.87;;;11.60;;
11024;SDS011;22890;51.820;8.682;2023-08-12T08:18:20;12.47;;;10.97;;
11024;SDS011;22890;51.820;8.682;2023-08-12T08:20:47;12.00;;;10.90;;
11024;SDS011;22890;51.820;8.682;2023-08-12T08:23:14;11.10;;;9.53;;
11024;SDS011;22890;51.820;8.682;2023-08-12T08:25:41;10.73;;;8.77;;
11024;SDS011;22890;51.820;8.682;2023-08-12T08:28:07;11.50;;;10.43;;
11024;SDS011;22890;51.820;8.682;2023-08-12T08:30:34;11.93;;;9.53;;
11024;SDS011;22890;51.820;8.682;2023-08-12T08:33:01;9.70;;;8.70;;
11024;SDS011;22890;51.820;8.682;2023-08-12T08:35:28;9.10;;;7.97;;
11024;SDS011;22890;51.820;8.682;2023-08-12T08:37:55;9.30;;;8.40;;
11024;SDS011;22890;51.820;8.682;2023-08-12T08:40:21;9.50;;;8.53;;
11024;SDS011;22890;51.820;8.682;2023-08-12T08:42:51;10.20;;;8.83;;
11024;SDS011;22890;51.820;8.682;2023-08-12T08:45:22;10.60;;;9.30;;
11024;SDS011;22890;51.820;8.682;2023-08-12T08:47:51;10.80;;;8.73;;
11024;SDS011;22890;51.820;8.682;2023-08-12T08:50:19;8.50;;;7.70;;
11024;SDS011;22890;51.820;8.682;2023-08-12T08:52:47;9.47;;;8.63;;
11024;SDS011;22890;51.820;8.682;2023-08-12T08:55:14;9.53;;;8.63;;
11024;SDS011;22890;51.820;8.682;2023-08-12T08:57:43;9.10;;;7.90;;
11024;SDS011;22890;51.820;8.682;2023-08-12T09:00:14;9.60;;;8.73;;
11024;SDS011;22890;51.820;8.682;2023-08-12T09:02:45;10.30;;;9.13;;
11024;SDS011;22890;51.820;8.682;2023-08-12T09:05:14;8.80;;;8.00;;
11024;SDS011;22890;51.820;8.682;2023-08-12T09:07:42;10.63;;;9.33;;
11024;SDS011;22890;51.820;8.682;2023-08-12T09:10:11;9.20;;;8.40;;
11024;SDS011;22890;51.820;8.682;2023-08-12T09:12:40;9.63;;;8.53;;
11024;SDS011;22890;51.820;8.682;2023-08-12T09:15:08;9.20;;;8.23;;
11024;SDS011;22890;51.820;8.682;2023-08-12T09:17:35;8.63;;;7.83;;
11024;SDS011;22890;51.820;8.682;2023-08-12T09:20:02;7.53;;;6.93;;
11024;SDS011;22890;51.820;8.682;2023-08-12T09:22:34;6.77;;;6.17;;
11024;SDS011;22890;51.820;8.682;2023-08-12T09:25:01;7.20;;;6.47;;
11024;SDS011;22890;51.820;8.682;2023-08-12T09:27:31;6.03;;;4.80;;
11024;SDS011;22890;51.820;8.682;2023-08-12T09:29:58;7.13;;;4.80;;
11024;SDS011;22890;51.820;8.682;2023-08-12T09:32:28;3.97;;;3.13;;
11024;SDS011;22890;51.820;8.682;2023-08-12T09:34:55;2.90;;;2.57;;
11024;SDS011;22890;51.820;8.682;2023-08-12T09:37:23;2.70;;;2.50;;
11024;SDS011;22890;51.820;8.682;2023-08-12T09:39:51;3.43;;;2.50;;
11024;SDS011;22890;51.820;8.682;2023-08-12T09:42:18;3.67;;;2.50;;
11024;SDS011;22890;51.820;8.682;2023-08-12T09:44:45;3.50;;;2.20;;
11024;SDS011;22890;51.820;8.682;2023-08-12T09:47:12;2.87;;;2.20;;
11024;SDS011;22890;51.820;8.682;2023-08-12T09:49:39;5.83;;;2.43;;
11024;SDS011;22890;51.820;8.682;2023-08-12T09:52:07;3.60;;;2.20;;
11024;SDS011;22890;51.820;8.682;2023-08-12T09:54:34;3.30;;;2.43;;
11024;SDS011;22890;51.820;8.682;2023-08-12T09:57:02;2.30;;;2.03;;
11024;SDS011;22890;51.820;8.682;2023-08-12T09:59:30;2.40;;;1.63;;
11024;SDS011;22890;51.820;8.682;2023-08-12T10:01:58;3.30;;;1.90;;
11024;SDS011;22890;51.820;8.682;2023-08-12T10:04:31;1.70;;;1.60;;
11024;SDS011;22890;51.820;8.682;2023-08-12T10:07:07;1.83;;;1.63;;
11024;SDS011;22890;51.820;8.682;2023-08-12T10:09:36;2.13;;;1.70;;
11024;SDS011;22890;51.820;8.682;2023-08-12T10:12:04;2.57;;;2.00;;
11024;SDS011;22890;51.820;8.682;2023-08-12T10:14:35;2.50;;;1.63;;
11024;SDS011;22890;51.820;8.682;2023-08-12T10:17:03;1.73;;;1.60;;
11024;SDS011;22890;51.820;8.682;2023-08-12T10:19:32;2.70;;;1.80;;
11024;SDS011;22890;51.820;8.682;2023-08-12T10:21:59;2.23;;;1.50;;
11024;SDS011;22890;51.820;8.682;2023-08-12T10:24:29;4.63;;;2.00;;
11024;SDS011;22890;51.820;8.682;2023-08-12T10:26:57;3.63;;;1.50;;
11024;SDS011;22890;51.820;8.682;2023-08-12T10:29:24;2.63;;;1.53;;
11024;SDS011;22890;51.820;8.682;2023-08-12T10:31:51;1.80;;;1.70;;
11024;SDS011;22890;51.820;8.682;2023-08-12T10:34:27;2.60;;;1.50;;
11024;SDS011;22890;51.820;8.682;2023-08-12T10:36:55;1.83;;;1.43;;
11024;SDS011;22890;51.820;8.682;2023-08-12T10:39:29;2.87;;;1.50;;
11024;SDS011;22890;51.820;8.682;2023-08-12T10:41:58;2.30;;;1.87;;
11024;SDS011;22890;51.820;8.682;2023-08-12T10:44:26;2.23;;;1.40;;
11024;SDS011;22890;51.820;8.682;2023-08-12T10:47:10;1.53;;;1.40;;
11024;SDS011;22890;51.820;8.682;2023-08-12T10:49:44;4.10;;;1.37;;
11024;SDS011;22890;51.820;8.682;2023-08-12T10:52:19;1.53;;;1.43;;
11024;SDS011;22890;51.820;8.682;2023-08-12T10:57:48;1.30;;;1.20;;
11024;SDS011;22890;51.820;8.682;2023-08-12T11:00:16;1.17;;;1.10;;
11024;SDS011;22890;51.820;8.682;2023-08-12T11:02:45;1.67;;;1.50;;
11024;SDS011;22890;51.820;8.682;2023-08-12T11:05:14;1.63;;;1.53;;
11024;SDS011;22890;51.820;8.682;2023-08-12T11:07:42;2.43;;;1.63;;
11024;SDS011;22890;51.820;8.682;2023-08-12T11:12:39;2.27;;;1.30;;
11024;SDS011;22890;51.820;8.682;2023-08-12T11:15:07;1.40;;;1.30;;
11024;SDS011;22890;51.820;8.682;2023-08-12T11:17:36;2.47;;;1.57;;
11024;SDS011;22890;51.820;8.682;2023-08-12T11:20:08;1.93;;;1.50;;
11024;SDS011;22890;51.820;8.682;2023-08-12T11:22:37;1.57;;;1.47;;
11024;SDS011;22890;51.820;8.682;2023-08-12T11:25:13;1.33;;;1.23;;
11024;SDS011;22890;51.820;8.682;2023-08-12T11:27:41;2.10;;;1.50;;
11024;SDS011;22890;51.820;8.682;2023-08-12T11:30:10;1.47;;;1.37;;
11024;SDS011;22890;51.820;8.682;2023-08-12T11:32:44;2.30;;;1.37;;
11024;SDS011;22890;51.820;8.682;2023-08-12T11:35:13;1.30;;;1.20;;
11024;SDS011;22890;51.820;8.682;2023-08-12T11:37:42;1.20;;;1.10;;
11024;SDS011;22890;51.820;8.682;2023-08-12T11:40:11;1.20;;;0.93;;
11024;SDS011;22890;51.820;8.682;2023-08-12T11:42:41;1.00;;;0.90;;
11024;SDS011;22890;51.820;8.682;2023-08-12T11:45:09;1.63;;;0.83;;
11024;SDS011;22890;51.820;8.682;2023-08-12T11:47:37;0.80;;;0.80;;
11024;SDS011;22890;51.820;8.682;2023-08-12T11:50:05;2.60;;;0.80;;
11024;SDS011;22890;51.820;8.682;2023-08-12T11:52:33;0.67;;;0.67;;
11024;SDS011;22890;51.820;8.682;2023-08-12T11:55:01;0.93;;;0.80;;
11024;SDS011;22890;51.820;8.682;2023-08-12T11:57:29;0.83;;;0.83;;
11024;SDS011;22890;51.820;8.682;2023-08-12T11:59:59;1.10;;;0.80;;
11024;SDS011;22890;51.820;8.682;2023-08-12T12:05:18;2.90;;;1.00;;
11024;SDS011;22890;51.820;8.682;2023-08-12T12:07:50;0.80;;;0.80;;
11024;SDS011;22890;51.820;8.682;2023-08-12T12:10:31;0.97;;;0.77;;
11024;SDS011;22890;51.820;8.682;2023-08-12T12:13:01;1.13;;;1.03;;
11024;SDS011;22890;51.820;8.682;2023-08-12T12:15:31;1.50;;;1.00;;
11024;SDS011;22890;51.820;8.682;2023-08-12T12:18:13;3.23;;;1.43;;
11024;SDS011;22890;51.820;8.682;2023-08-12T12:20:56;1.67;;;1.30;;
11024;SDS011;22890;51.820;8.682;2023-08-12T12:23:26;1.00;;;1.00;;
11024;SDS011;22890;51.820;8.682;2023-08-12T12:25:58;1.43;;;1.33;;
11024;SDS011;22890;51.820;8.682;2023-08-12T12:28:26;1.47;;;1.00;;
11024;SDS011;22890;51.820;8.682;2023-08-12T12:30:53;1.30;;;1.20;;
11024;SDS011;22890;51.820;8.682;2023-08-12T12:33:20;1.40;;;1.30;;
11024;SDS011;22890;51.820;8.682;2023-08-12T12:35:47;1.37;;;1.27;;
11024;SDS011;22890;51.820;8.682;2023-08-12T12:38:24;1.10;;;1.10;;
11024;SDS011;22890;51.820;8.682;2023-08-12T12:40:50;1.50;;;1.40;;
11024;SDS011;22890;51.820;8.682;2023-08-12T12:43:17;1.37;;;1.17;;
11024;SDS011;22890;51.820;8.682;2023-08-12T12:45:44;1.70;;;1.00;;
11024;SDS011;22890;51.820;8.682;2023-08-12T12:48:11;1.50;;;1.40;;
11024;SDS011;22890;51.820;8.682;2023-08-12T12:50:37;1.40;;;1.30;;
11024;SDS011;22890;51.820;8.682;2023-08-12T12:53:04;1.30;;;1.20;;
11024;SDS011;22890;51.820;8.682;2023-08-12T12:55:31;1.40;;;1.30;;
11024;SDS011;22890;51.820;8.682;2023-08-12T12:57:58;1.50;;;1.40;;
11024;SDS011;22890;51.820;8.682;2023-08-12T13:00:24;1.50;;;1.40;;
11024;SDS011;22890;51.820;8.682;2023-08-12T13:02:52;1.57;;;1.47;;
11024;SDS011;22890;51.820;8.682;2023-08-12T13:05:19;1.60;;;1.50;;
11024;SDS011;22890;51.820;8.682;2023-08-12T13:07:45;1.53;;;1.40;;
11024;SDS011;22890;51.820;8.682;2023-08-12T13:10:12;1.80;;;1.70;;
11024;SDS011;22890;51.820;8.682;2023-08-12T13:12:39;2.40;;;2.20;;
11024;SDS011;22890;51.820;8.682;2023-08-12T13:15:06;2.13;;;1.93;;
11024;SDS011;22890;51.820;8.682;2023-08-12T13:17:33;2.30;;;2.10;;
11024;SDS011;22890;51.820;8.682;2023-08-12T13:20:00;2.00;;;1.90;;
11024;SDS011;22890;51.820;8.682;2023-08-12T13:22:27;2.00;;;1.90;;
11024;SDS011;22890;51.820;8.682;2023-08-12T13:24:53;2.30;;;2.10;;
11024;SDS011;22890;51.820;8.682;2023-08-12T13:27:20;2.40;;;2.00;;
11024;SDS011;22890;51.820;8.682;2023-08-12T13:29:47;1.90;;;1.80;;
11024;SDS011;22890;51.820;8.682;2023-08-12T13:32:14;2.00;;;1.90;;
11024;SDS011;22890;51.820;8.682;2023-08-12T13:34:41;4.03;;;2.57;;
11024;SDS011;22890;51.820;8.682;2023-08-12T13:37:09;4.40;;;2.30;;
11024;SDS011;22890;51.820;8.682;2023-08-12T13:39:36;3.83;;;1.77;;
11024;SDS011;22890;51.820;8.682;2023-08-12T13:42:03;2.37;;;1.90;;
11024;SDS011;22890;51.820;8.682;2023-08-12T13:44:30;1.50;;;1.40;;
11024;SDS011;22890;51.820;8.682;2023-08-12T13:46:56;1.27;;;1.17;;
11024;SDS011;22890;51.820;8.682;2023-08-12T13:49:23;3.00;;;1.47;;
11024;SDS011;22890;51.820;8.682;2023-08-12T13:51:50;2.83;;;1.50;;
11024;SDS011;22890;51.820;8.682;2023-08-12T13:54:16;1.53;;;1.43;;
11024;SDS011;22890;51.820;8.682;2023-08-12T13:56:43;1.77;;;1.63;;
11024;SDS011;22890;51.820;8.682;2023-08-12T13:59:10;1.70;;;1.60;;
11024;SDS011;22890;51.820;8.682;2023-08-12T14:01:37;18.20;;;4.17;;
11024;SDS011;22890;51.820;8.682;2023-08-12T14:04:06;1.97;;;1.70;;
11024;SDS011;22890;51.820;8.682;2023-08-12T14:06:33;1.90;;;1.53;;
11024;SDS011;22890;51.820;8.682;2023-08-12T14:09:00;2.70;;;1.67;;
11024;SDS011;22890;51.820;8.682;2023-08-12T14:11:26;4.27;;;1.47;;
11024;SDS011;22890;51.820;8.682;2023-08-12T14:13:53;1.70;;;1.60;;
11024;SDS011;22890;51.820;8.682;2023-08-12T14:16:20;1.93;;;1.80;;
11024;SDS011;22890;51.820;8.682;2023-08-12T14:18:47;1.90;;;1.80;;
11024;SDS011;22890;51.820;8.682;2023-08-12T14:21:16;2.10;;;2.00;;
11024;SDS011;22890;51.820;8.682;2023-08-12T14:23:42;1.70;;;1.60;;
11024;SDS011;22890;51.820;8.682;2023-08-12T14:26:09;1.63;;;1.53;;
11024;SDS011;22890;51.820;8.682;2023-08-12T14:28:36;4.77;;;2.00;;
11024;SDS011;22890;51.820;8.682;2023-08-12T14:31:02;1.93;;;1.83;;
11024;SDS011;22890;51.820;8.682;2023-08-12T14:33:29;5.10;;;2.43;;
11024;SDS011;22890;51.820;8.682;2023-08-12T14:35:59;7.90;;;2.70;;
11024;SDS011;22890;51.820;8.682;2023-08-12T14:38:26;4.80;;;2.50;;
11024;SDS011;22890;51.820;8.682;2023-08-12T14:40:53;5.33;;;2.00;;
11024;SDS011;22890;51.820;8.682;2023-08-12T14:43:19;6.30;;;1.73;;
11024;SDS011;22890;51.820;8.682;2023-08-12T14:45:46;3.13;;;1.93;;
11024;SDS011;22890;51.820;8.682;2023-08-12T14:48:13;3.23;;;2.50;;
11024;SDS011;22890;51.820;8.682;2023-08-12T14:50:44;4.70;;;2.50;;